sensor_id;sensor_type;location;lat;lon;timestamp;P1;durP1;ratioP1;P2;durP2;ratioP2
3911;SDS011;1971;51.778;10.330;2023-08-21T00:01:47;6.43;;;5.93;;
3911;SDS011;1971;51.778;10.330;2023-08-21T00:04:18;6.27;;;5.77;;
3911;SDS011;1971;51.778;10.330;2023-08-21T00:06:48;6.60;;;6.00;;
3911;SDS011;1971;51.778;10.330;2023-08-21T00:09:19;6.00;;;5.33;;
3911;SDS011;1971;51.778;10.330;2023-08-21T00:11:49;6.87;;;6.20;;
3911;SDS011;1971;51.778;10.330;2023-08-21T00:14:22;6.27;;;5.77;;
3911;SDS011;1971;51.778;10.330;2023-08-21T00:16:52;6.17;;;5.63;;
3911;SDS011;1971;51.778;10.330;2023-08-21T00:19:23;9.13;;;5.33;;
3911;SDS011;1971;51.778;10.330;2023-08-21T00:21:53;6.57;;;5.47;;
3911;SDS011;1971;51.778;10.330;2023-08-21T00:24:23;6.33;;;5.77;;
3911;SDS011;1971;51.778;10.330;2023-08-21T00:26:54;6.63;;;6.10;;
3911;SDS011;1971;51.778;10.330;2023-08-21T00:29:27;5.90;;;5.50;;
3911;SDS011;1971;51.778;10.330;2023-08-21T00:31:57;7.90;;;6.00;;
3911;SDS011;1971;51.778;10.330;2023-08-21T00:34:27;6.63;;;6.13;;
3911;SDS011;1971;51.778;10.330;2023-08-21T00:36:58;6.77;;;5.17;;
3911;SDS011;1971;51.778;10.330;2023-08-21T00:39:28;9.30;;;6.13;;
3911;SDS011;1971;51.778;10.330;2023-08-21T00:41:58;5.40;;;5.00;;
3911;SDS011;1971;51.778;10.330;2023-08-21T00:44:31;5.57;;;5.17;;
3911;SDS011;1971;51.778;10.330;2023-08-21T00:47:01;5.33;;;4.70;;
3911;SDS011;1971;51.778;10.330;2023-08-21T00:49:32;6.47;;;5.77;;
3911;SDS011;1971;51.778;10.330;2023-08-21T00:52:03;7.03;;;5.37;;
3911;SDS011;1971;51.778;10.330;2023-08-21T00:54:33;6.70;;;6.10;;
3911;SDS011;1971;51.778;10.330;2023-08-21T00:57:05;6.30;;;5.70;;
3911;SDS011;1971;51.778;10.330;2023-08-21T00:59:37;7.57;;;6.10;;
3911;SDS011;1971;51.778;10.330;2023-08-21T01:02:08;6.33;;;5.73;;
3911;SDS011;1971;51.778;10.330;2023-08-21T01:04:38;5.80;;;5.40;;
3911;SDS011;1971;51.778;10.330;2023-08-21T01:07:08;6.23;;;5.57;;
3911;SDS011;1971;51.778;10.330;2023-08-21T01:09:39;7.57;;;6.73;;
3911;SDS011;1971;51.778;10.330;2023-08-21T01:12:17;7.93;;;5.90;;
3911;SDS011;1971;51.778;10.330;2023-08-21T01:14:57;8.33;;;5.90;;
3911;SDS011;1971;51.778;10.330;2023-08-21T01:17:29;6.37;;;5.80;;
3911;SDS011;1971;51.778;10.330;2023-08-21T01:20:00;5.50;;;5.00;;
3911;SDS011;1971;51.778;10.330;2023-08-21T01:22:35;5.93;;;4.77;;
3911;SDS011;1971;51.778;10.330;2023-08-21T01:25:10;5.53;;;4.30;;
3911;SDS011;1971;51.778;10.330;2023-08-21T01:27:43;5.13;;;4.83;;
3911;SDS011;1971;51.778;10.330;2023-08-21T01:30:16;10.37;;;5.03;;
3911;SDS011;1971;51.778;10.330;2023-08-21T01:32:48;6.27;;;4.70;;
3911;SDS011;1971;51.778;10.330;2023-08-21T01:35:24;6.40;;;5.20;;
3911;SDS011;1971;51.778;10.330;2023-08-21T01:37:55;5.77;;;5.27;;
3911;SDS011;1971;51.778;10.330;2023-08-21T01:40:29;5.87;;;5.37;;
3911;SDS011;1971;51.778;10.330;2023-08-21T01:42:59;5.27;;;4.87;;
3911;SDS011;1971;51.778;10.330;2023-08-21T01:45:30;5.20;;;4.80;;
3911;SDS011;1971;51.778;10.330;2023-08-21T01:48:00;5.90;;;5.40;;
3911;SDS011;1971;51.778;10.330;2023-08-21T01:50:31;5.87;;;5.00;;
3911;SDS011;1971;51.778;10.330;2023-08-21T01:53:01;6.00;;;5.40;;
3911;SDS011;1971;51.778;10.330;2023-08-21T01:55:34;5.37;;;4.97;;
3911;SDS011;1971;51.778;10.330;2023-08-21T01:58:04;5.90;;;5.03;;
3911;SDS011;1971;51.778;10.330;2023-08-21T02:00:34;5.97;;;5.37;;
3911;SDS011;1971;51.778;10.330;2023-08-21T02:03:05;6.63;;;6.03;;
3911;SDS011;1971;51.778;10.330;2023-08-21T02:05:38;4.80;;;4.40;;
3911;SDS011;1971;51.778;10.330;2023-08-21T02:08:09;5.50;;;4.77;;
3911;SDS011;1971;51.778;10.330;2023-08-21T02:10:53;5.73;;;5.23;;
3911;SDS011;1971;51.778;10.330;2023-08-21T02:13:23;6.60;;;6.00;;
3911;SDS011;1971;51.778;10.330;2023-08-21T02:15:54;5.60;;;5.17;;
3911;SDS011;1971;51.778;10.330;2023-08-21T02:18:25;5.13;;;4.73;;
3911;SDS011;1971;51.778;10.330;2023-08-21T02:20:56;6.50;;;5.90;;
3911;SDS011;1971;51.778;10.330;2023-08-21T02:23:27;5.40;;;5.00;;
3911;SDS011;1971;51.778;10.330;2023-08-21T02:26:01;5.40;;;4.90;;
3911;SDS011;1971;51.778;10.330;2023-08-21T02:28:33;5.00;;;4.50;;
3911;SDS011;1971;51.778;10.330;2023-08-21T02:31:04;5.50;;;5.00;;
3911;SDS011;1971;51.778;10.330;2023-08-21T02:33:35;5.80;;;5.03;;
3911;SDS011;1971;51.778;10.330;2023-08-21T02:36:06;7.57;;;5.23;;
3911;SDS011;1971;51.778;10.330;2023-08-21T02:38:37;6.13;;;5.53;;
3911;SDS011;1971;51.778;10.330;2023-08-21T02:41:09;6.50;;;5.97;;
3911;SDS011;1971;51.778;10.330;2023-08-21T02:43:43;5.57;;;4.73;;
3911;SDS011;1971;51.778;10.330;2023-08-21T02:46:14;5.47;;;4.87;;
3911;SDS011;1971;51.778;10.330;2023-08-21T02:48:44;6.80;;;4.50;;
3911;SDS011;1971;51.778;10.330;2023-08-21T02:51:16;6.30;;;4.83;;
3911;SDS011;1971;51.778;10.330;2023-08-21T02:53:46;5.40;;;5.00;;
3911;SDS011;1971;51.778;10.330;2023-08-21T02:56:19;5.50;;;5.00;;
3911;SDS011;1971;51.778;10.330;2023-08-21T02:58:49;5.50;;;5.00;;
3911;SDS011;1971;51.778;10.330;2023-08-21T03:01:20;6.43;;;4.57;;
3911;SDS011;1971;51.778;10.330;2023-08-21T03:03:50;5.17;;;4.67;;
3911;SDS011;1971;51.778;10.330;2023-08-21T03:06:20;5.13;;;4.73;;
3911;SDS011;1971;51.778;10.330;2023-08-21T03:08:50;5.33;;;4.80;;
3911;SDS011;1971;51.778;10.330;2023-08-21T03:11:23;5.87;;;5.23;;
3911;SDS011;1971;51.778;10.330;2023-08-21T03:13:54;5.03;;;4.53;;
3911;SDS011;1971;51.778;10.330;2023-08-21T03:16:24;5.60;;;4.57;;
3911;SDS011;1971;51.778;10.330;2023-08-21T03:18:55;6.93;;;4.30;;
3911;SDS011;1971;51.778;10.330;2023-08-21T03:21:29;6.60;;;4.63;;
3911;SDS011;1971;51.778;10.330;2023-08-21T03:24:00;5.40;;;4.30;;
3911;SDS011;1971;51.778;10.330;2023-08-21T03:26:33;7.03;;;4.53;;
3911;SDS011;1971;51.778;10.330;2023-08-21T03:29:04;6.10;;;4.57;;
3911;SDS011;1971;51.778;10.330;2023-08-21T03:31:35;4.37;;;4.07;;
3911;SDS011;1971;51.778;10.330;2023-08-21T03:34:05;5.00;;;4.40;;
3911;SDS011;1971;51.778;10.330;2023-08-21T03:36:36;5.73;;;4.80;;
3911;SDS011;1971;51.778;10.330;2023-08-21T03:39:07;7.37;;;4.50;;
3911;SDS011;1971;51.778;10.330;2023-08-21T03:41:45;4.97;;;4.47;;
3911;SDS011;1971;51.778;10.330;2023-08-21T03:44:15;5.13;;;4.30;;
3911;SDS011;1971;51.778;10.330;2023-08-21T03:46:46;5.70;;;4.67;;
3911;SDS011;1971;51.778;10.330;2023-08-21T03:49:16;5.53;;;4.93;;
3911;SDS011;1971;51.778;10.330;2023-08-21T03:51:47;5.23;;;4.47;;
3911;SDS011;1971;51.778;10.330;2023-08-21T03:54:20;5.70;;;4.03;;
3911;SDS011;1971;51.778;10.330;2023-08-21T03:56:52;4.23;;;3.83;;
3911;SDS011;1971;51.778;10.330;2023-08-21T03:59:23;5.10;;;4.60;;
3911;SDS011;1971;51.778;10.330;2023-08-21T04:01:54;4.57;;;4.27;;
3911;SDS011;1971;51.778;10.330;2023-08-21T04:04:25;4.90;;;4.40;;
3911;SDS011;1971;51.778;10.330;2023-08-21T04:06:55;4.53;;;4.10;;
3911;SDS011;1971;51.778;10.330;2023-08-21T04:09:25;5.17;;;4.77;;
3911;SDS011;1971;51.778;10.330;2023-08-21T04:11:59;4.97;;;4.00;;
3911;SDS011;1971;51.778;10.330;2023-08-21T04:14:29;4.83;;;4.33;;
3911;SDS011;1971;51.778;10.330;2023-08-21T04:16:59;3.80;;;3.50;;
3911;SDS011;1971;51.778;10.330;2023-08-21T04:19:29;4.90;;;4.40;;
3911;SDS011;1971;51.778;10.330;2023-08-21T04:22:01;4.87;;;3.90;;
3911;SDS011;1971;51.778;10.330;2023-08-21T04:24:31;6.10;;;4.60;;
3911;SDS011;1971;51.778;10.330;2023-08-21T04:27:04;7.03;;;4.30;;
3911;SDS011;1971;51.778;10.330;2023-08-21T04:29:35;5.30;;;4.80;;
3911;SDS011;1971;51.778;10.330;2023-08-21T04:32:06;4.70;;;4.37;;
3911;SDS011;1971;51.778;10.330;2023-08-21T04:34:36;5.07;;;4.50;;
3911;SDS011;1971;51.778;10.330;2023-08-21T04:37:06;4.93;;;4.43;;
3911;SDS011;1971;51.778;10.330;2023-08-21T04:39:36;5.00;;;3.87;;
3911;SDS011;1971;51.778;10.330;2023-08-21T04:42:10;4.90;;;4.50;;
3911;SDS011;1971;51.778;10.330;2023-08-21T04:44:41;4.87;;;4.20;;
3911;SDS011;1971;51.778;10.330;2023-08-21T04:47:21;4.50;;;4.07;;
3911;SDS011;1971;51.778;10.330;2023-08-21T04:49:55;4.53;;;3.90;;
3911;SDS011;1971;51.778;10.330;2023-08-21T04:52:28;6.77;;;3.77;;
3911;SDS011;1971;51.778;10.330;2023-08-21T04:54:58;4.70;;;4.40;;
3911;SDS011;1971;51.778;10.330;2023-08-21T04:57:34;4.70;;;4.30;;
3911;SDS011;1971;51.778;10.330;2023-08-21T05:00:07;5.43;;;4.30;;
3911;SDS011;1971;51.778;10.330;2023-08-21T05:02:41;4.77;;;4.37;;
3911;SDS011;1971;51.778;10.330;2023-08-21T05:05:11;4.97;;;3.97;;
3911;SDS011;1971;51.778;10.330;2023-08-21T05:07:41;5.40;;;4.57;;
3911;SDS011;1971;51.778;10.330;2023-08-21T05:10:12;5.17;;;4.67;;
3911;SDS011;1971;51.778;10.330;2023-08-21T05:12:46;5.50;;;5.00;;
3911;SDS011;1971;51.778;10.330;2023-08-21T05:15:17;5.33;;;4.93;;
3911;SDS011;1971;51.778;10.330;2023-08-21T05:17:47;5.50;;;5.10;;
3911;SDS011;1971;51.778;10.330;2023-08-21T05:20:20;6.83;;;4.97;;
3911;SDS011;1971;51.778;10.330;2023-08-21T05:22:50;5.00;;;4.60;;
3911;SDS011;1971;51.778;10.330;2023-08-21T05:25:21;5.43;;;4.90;;
3911;SDS011;1971;51.778;10.330;2023-08-21T05:27:53;4.60;;;4.20;;
3911;SDS011;1971;51.778;10.330;2023-08-21T05:30:24;4.83;;;4.53;;
3911;SDS011;1971;51.778;10.330;2023-08-21T05:32:56;5.30;;;4.80;;
3911;SDS011;1971;51.778;10.330;2023-08-21T05:35:27;5.07;;;4.60;;
3911;SDS011;1971;51.778;10.330;2023-08-21T05:37:57;4.80;;;4.40;;
3911;SDS011;1971;51.778;10.330;2023-08-21T05:40:27;4.27;;;3.90;;
3911;SDS011;1971;51.778;10.330;2023-08-21T05:43:00;4.40;;;4.00;;
3911;SDS011;1971;51.778;10.330;2023-08-21T05:45:30;8.27;;;4.73;;
3911;SDS011;1971;51.778;10.330;2023-08-21T05:48:01;4.30;;;3.90;;
3911;SDS011;1971;51.778;10.330;2023-08-21T05:50:32;7.43;;;3.70;;
3911;SDS011;1971;51.778;10.330;2023-08-21T05:53:04;4.43;;;4.03;;
3911;SDS011;1971;51.778;10.330;2023-08-21T05:55:36;5.73;;;4.07;;
3911;SDS011;1971;51.778;10.330;2023-08-21T05:58:09;3.73;;;3.43;;
3911;SDS011;1971;51.778;10.330;2023-08-21T06:00:39;5.40;;;3.80;;
3911;SDS011;1971;51.778;10.330;2023-08-21T06:03:11;5.80;;;4.20;;
3911;SDS011;1971;51.778;10.330;2023-08-21T06:06:10;3.73;;;3.43;;
3911;SDS011;1971;51.778;10.330;2023-08-21T06:09:34;4.60;;;4.20;;
3911;SDS011;1971;51.778;10.330;2023-08-21T07:10:24;2.63;;;2.43;;
3911;SDS011;1971;51.778;10.330;2023-08-21T07:12:55;2.30;;;2.10;;
3911;SDS011;1971;51.778;10.330;2023-08-21T07:15:30;2.57;;;2.37;;
3911;SDS011;1971;51.778;10.330;2023-08-21T07:18:06;2.57;;;1.80;;
3911;SDS011;1971;51.778;10.330;2023-08-21T07:20:40;2.37;;;2.23;;
3911;SDS011;1971;51.778;10.330;2023-08-21T07:23:20;2.90;;;2.50;;
3911;SDS011;1971;51.778;10.330;2023-08-21T07:25:53;2.50;;;2.30;;
3911;SDS011;1971;51.778;10.330;2023-08-21T07:28:24;2.00;;;1.90;;
3911;SDS011;1971;51.778;10.330;2023-08-21T07:30:59;2.60;;;2.40;;
3911;SDS011;1971;51.778;10.330;2023-08-21T07:33:29;2.73;;;2.53;;
3911;SDS011;1971;51.778;10.330;2023-08-21T07:36:13;2.87;;;2.20;;
3911;SDS011;1971;51.778;10.330;2023-08-21T07:38:50;2.60;;;2.40;;
3911;SDS011;1971;51.778;10.330;2023-08-21T07:41:27;2.63;;;2.43;;
3911;SDS011;1971;51.778;10.330;2023-08-21T07:44:11;2.80;;;2.60;;
3911;SDS011;1971;51.778;10.330;2023-08-21T07:46:43;3.10;;;2.20;;
3911;SDS011;1971;51.778;10.330;2023-08-21T07:49:14;3.40;;;2.60;;
3911;SDS011;1971;51.778;10.330;2023-08-21T07:51:53;2.70;;;2.03;;
3911;SDS011;1971;51.778;10.330;2023-08-21T07:54:27;4.67;;;3.80;;
3911;SDS011;1971;51.778;10.330;2023-08-21T07:56:58;3.90;;;3.60;;
3911;SDS011;1971;51.778;10.330;2023-08-21T07:59:28;4.00;;;3.70;;
3911;SDS011;1971;51.778;10.330;2023-08-21T08:01:59;4.53;;;4.13;;
3911;SDS011;1971;51.778;10.330;2023-08-21T08:04:31;3.80;;;3.50;;
3911;SDS011;1971;51.778;10.330;2023-08-21T08:07:01;4.50;;;3.83;;
3911;SDS011;1971;51.778;10.330;2023-08-21T08:09:43;5.97;;;4.87;;
3911;SDS011;1971;51.778;10.330;2023-08-21T08:12:14;4.43;;;4.00;;
3911;SDS011;1971;51.778;10.330;2023-08-21T08:14:54;4.93;;;4.40;;
3911;SDS011;1971;51.778;10.330;2023-08-21T08:17:24;4.70;;;4.40;;
3911;SDS011;1971;51.778;10.330;2023-08-21T08:19:56;5.10;;;4.67;;
3911;SDS011;1971;51.778;10.330;2023-08-21T08:22:26;7.03;;;4.20;;
3911;SDS011;1971;51.778;10.330;2023-08-21T08:25:00;4.73;;;4.13;;
3911;SDS011;1971;51.778;10.330;2023-08-21T08:27:32;5.20;;;4.70;;
3911;SDS011;1971;51.778;10.330;2023-08-21T08:30:03;4.30;;;3.97;;
3911;SDS011;1971;51.778;10.330;2023-08-21T08:32:35;4.87;;;4.37;;
3911;SDS011;1971;51.778;10.330;2023-08-21T08:35:11;6.30;;;3.80;;
3911;SDS011;1971;51.778;10.330;2023-08-21T08:37:42;4.40;;;4.03;;
3911;SDS011;1971;51.778;10.330;2023-08-21T08:40:17;6.30;;;4.03;;
3911;SDS011;1971;51.778;10.330;2023-08-21T08:42:47;4.30;;;4.00;;
3911;SDS011;1971;51.778;10.330;2023-08-21T08:45:20;4.13;;;3.83;;
3911;SDS011;1971;51.778;10.330;2023-08-21T08:48:04;5.73;;;3.60;;
3911;SDS011;1971;51.778;10.330;2023-08-21T08:50:36;4.90;;;3.97;;
3911;SDS011;1971;51.778;10.330;2023-08-21T08:53:11;3.80;;;3.33;;
3911;SDS011;1971;51.778;10.330;2023-08-21T08:55:51;3.63;;;2.80;;
3911;SDS011;1971;51.778;10.330;2023-08-21T08:58:28;3.67;;;2.77;;
3911;SDS011;1971;51.778;10.330;2023-08-21T09:00:59;4.40;;;2.00;;
3911;SDS011;1971;51.778;10.330;2023-08-21T09:03:38;3.10;;;2.00;;
3911;SDS011;1971;51.778;10.330;2023-08-21T09:06:18;4.60;;;3.00;;
3911;SDS011;1971;51.778;10.330;2023-08-21T09:08:55;2.90;;;1.97;;
3911;SDS011;1971;51.778;10.330;2023-08-21T09:11:35;4.40;;;2.10;;
3911;SDS011;1971;51.778;10.330;2023-08-21T09:14:25;3.00;;;2.60;;
3911;SDS011;1971;51.778;10.330;2023-08-21T09:16:59;2.20;;;1.87;;
3911;SDS011;1971;51.778;10.330;2023-08-21T09:19:33;2.23;;;2.03;;
3911;SDS011;1971;51.778;10.330;2023-08-21T09:22:13;2.33;;;2.13;;
3911;SDS011;1971;51.778;10.330;2023-08-21T09:24:59;2.10;;;1.87;;
3911;SDS011;1971;51.778;10.330;2023-08-21T09:27:37;2.30;;;2.10;;
3911;SDS011;1971;51.778;10.330;2023-08-21T09:30:11;2.70;;;2.50;;
3911;SDS011;1971;51.778;10.330;2023-08-21T09:32:54;2.53;;;2.23;;
3911;SDS011;1971;51.778;10.330;2023-08-21T09:35:27;3.40;;;2.20;;
3911;SDS011;1971;51.778;10.330;2023-08-21T09:37:58;1.87;;;1.77;;
3911;SDS011;1971;51.778;10.330;2023-08-21T09:40:29;2.30;;;2.10;;
3911;SDS011;1971;51.778;10.330;2023-08-21T09:43:02;4.07;;;2.67;;
3911;SDS011;1971;51.778;10.330;2023-08-21T09:45:33;3.87;;;2.50;;
3911;SDS011;1971;51.778;10.330;2023-08-21T09:48:04;2.07;;;1.90;;
3911;SDS011;1971;51.778;10.330;2023-08-21T09:50:36;2.70;;;2.43;;
3911;SDS011;1971;51.778;10.330;2023-08-21T09:53:10;2.77;;;2.53;;
3911;SDS011;1971;51.778;10.330;2023-08-21T09:55:42;6.50;;;2.60;;
3911;SDS011;1971;51.778;10.330;2023-08-21T09:58:15;4.33;;;2.30;;
3911;SDS011;1971;51.778;10.330;2023-08-21T10:00:47;3.30;;;2.70;;
3911;SDS011;1971;51.778;10.330;2023-08-21T10:03:19;2.40;;;2.20;;
3911;SDS011;1971;51.778;10.330;2023-08-21T10:05:54;4.27;;;3.97;;
3911;SDS011;1971;51.778;10.330;2023-08-21T10:08:27;4.40;;;2.63;;
3911;SDS011;1971;51.778;10.330;2023-08-21T10:10:58;3.60;;;3.27;;
3911;SDS011;1971;51.778;10.330;2023-08-21T10:13:34;3.63;;;3.33;;
3911;SDS011;1971;51.778;10.330;2023-08-21T10:16:07;6.73;;;3.57;;
3911;SDS011;1971;51.778;10.330;2023-08-21T10:18:42;5.20;;;4.17;;
3911;SDS011;1971;51.778;10.330;2023-08-21T10:21:15;5.23;;;3.40;;
3911;SDS011;1971;51.778;10.330;2023-08-21T10:23:48;4.30;;;3.90;;
3911;SDS011;1971;51.778;10.330;2023-08-21T10:26:21;5.30;;;3.83;;
3911;SDS011;1971;51.778;10.330;2023-08-21T10:28:54;3.60;;;3.30;;
3911;SDS011;1971;51.778;10.330;2023-08-21T10:31:30;4.27;;;3.87;;
3911;SDS011;1971;51.778;10.330;2023-08-21T10:34:02;3.80;;;3.50;;
3911;SDS011;1971;51.778;10.330;2023-08-21T10:39:41;3.80;;;3.50;;
3911;SDS011;1971;51.778;10.330;2023-08-21T10:45:13;3.83;;;3.43;;
3911;SDS011;1971;51.778;10.330;2023-08-21T10:47:43;5.07;;;3.57;;
3911;SDS011;1971;51.778;10.330;2023-08-21T10:50:17;3.90;;;3.60;;
3911;SDS011;1971;51.778;10.330;2023-08-21T10:52:48;4.50;;;4.10;;
3911;SDS011;1971;51.778;10.330;2023-08-21T10:55:21;4.20;;;3.80;;
3911;SDS011;1971;51.778;10.330;2023-08-21T10:57:52;4.23;;;3.83;;
3911;SDS011;1971;51.778;10.330;2023-08-21T11:00:24;4.30;;;3.90;;
3911;SDS011;1971;51.778;10.330;2023-08-21T11:02:55;4.77;;;4.03;;
3911;SDS011;1971;51.778;10.330;2023-08-21T11:05:25;4.77;;;4.10;;
3911;SDS011;1971;51.778;10.330;2023-08-21T11:07:56;4.50;;;4.20;;
3911;SDS011;1971;51.778;10.330;2023-08-21T11:10:29;4.07;;;3.67;;
3911;SDS011;1971;51.778;10.330;2023-08-21T11:13:06;4.10;;;3.70;;
3911;SDS011;1971;51.778;10.330;2023-08-21T11:15:38;8.20;;;3.90;;
3911;SDS011;1971;51.778;10.330;2023-08-21T11:18:09;4.00;;;3.70;;
3911;SDS011;1971;51.778;10.330;2023-08-21T11:20:40;4.33;;;4.00;;
3911;SDS011;1971;51.778;10.330;2023-08-21T11:23:14;5.30;;;4.13;;
3911;SDS011;1971;51.778;10.330;2023-08-21T11:25:46;4.67;;;4.17;;
3911;SDS011;1971;51.778;10.330;2023-08-21T11:28:16;4.20;;;3.90;;
3911;SDS011;1971;51.778;10.330;2023-08-21T11:30:49;5.13;;;4.73;;
3911;SDS011;1971;51.778;10.330;2023-08-21T11:33:20;4.43;;;4.13;;
3911;SDS011;1971;51.778;10.330;2023-08-21T11:35:52;4.00;;;3.37;;
3911;SDS011;1971;51.778;10.330;2023-08-21T11:38:25;3.37;;;3.17;;
3911;SDS011;1971;51.778;10.330;2023-08-21T11:40:56;4.73;;;3.20;;
3911;SDS011;1971;51.778;10.330;2023-08-21T11:43:35;3.50;;;3.07;;
3911;SDS011;1971;51.778;10.330;2023-08-21T11:46:09;4.00;;;3.27;;
3911;SDS011;1971;51.778;10.330;2023-08-21T11:48:41;3.20;;;2.80;;
3911;SDS011;1971;51.778;10.330;2023-08-21T11:51:12;4.10;;;2.90;;
3911;SDS011;1971;51.778;10.330;2023-08-21T11:53:42;3.30;;;2.73;;
3911;SDS011;1971;51.778;10.330;2023-08-21T11:56:13;4.93;;;2.90;;
3911;SDS011;1971;51.778;10.330;2023-08-21T11:58:46;3.97;;;2.70;;
3911;SDS011;1971;51.778;10.330;2023-08-21T12:01:20;4.30;;;2.60;;
3911;SDS011;1971;51.778;10.330;2023-08-21T12:03:51;2.53;;;2.33;;
3911;SDS011;1971;51.778;10.330;2023-08-21T12:06:24;3.93;;;2.90;;
3911;SDS011;1971;51.778;10.330;2023-08-21T12:08:59;3.40;;;3.13;;
3911;SDS011;1971;51.778;10.330;2023-08-21T12:11:31;3.53;;;3.13;;
3911;SDS011;1971;51.778;10.330;2023-08-21T12:14:02;3.10;;;2.90;;
3911;SDS011;1971;51.778;10.330;2023-08-21T12:16:39;3.60;;;3.00;;
3911;SDS011;1971;51.778;10.330;2023-08-21T12:19:09;3.20;;;2.90;;
3911;SDS011;1971;51.778;10.330;2023-08-21T12:21:41;4.30;;;2.90;;
3911;SDS011;1971;51.778;10.330;2023-08-21T12:24:12;5.63;;;2.93;;
3911;SDS011;1971;51.778;10.330;2023-08-21T12:26:45;3.20;;;2.90;;
3911;SDS011;1971;51.778;10.330;2023-08-21T12:29:17;6.73;;;3.10;;
3911;SDS011;1971;51.778;10.330;2023-08-21T12:31:50;2.90;;;2.70;;
3911;SDS011;1971;51.778;10.330;2023-08-21T12:34:20;3.87;;;2.53;;
3911;SDS011;1971;51.778;10.330;2023-08-21T12:36:51;5.23;;;2.00;;
3911;SDS011;1971;51.778;10.330;2023-08-21T12:39:22;3.57;;;2.67;;
3911;SDS011;1971;51.778;10.330;2023-08-21T12:41:55;3.57;;;2.70;;
3911;SDS011;1971;51.778;10.330;2023-08-21T12:44:28;4.43;;;2.83;;
3911;SDS011;1971;51.778;10.330;2023-08-21T12:47:01;3.20;;;2.80;;
3911;SDS011;1971;51.778;10.330;2023-08-21T12:49:32;4.13;;;2.80;;
3911;SDS011;1971;51.778;10.330;2023-08-21T12:52:04;3.43;;;2.80;;
3911;SDS011;1971;51.778;10.330;2023-08-21T12:54:36;2.87;;;2.60;;
3911;SDS011;1971;51.778;10.330;2023-08-21T12:57:07;3.70;;;2.90;;
3911;SDS011;1971;51.778;10.330;2023-08-21T12:59:38;4.03;;;2.83;;
3911;SDS011;1971;51.778;10.330;2023-08-21T13:02:16;6.30;;;3.10;;
3911;SDS011;1971;51.778;10.330;2023-08-21T13:04:50;5.30;;;3.10;;
3911;SDS011;1971;51.778;10.330;2023-08-21T13:07:20;3.33;;;3.13;;
3911;SDS011;1971;51.778;10.330;2023-08-21T13:09:51;3.33;;;3.13;;
3911;SDS011;1971;51.778;10.330;2023-08-21T13:12:22;3.13;;;2.93;;
3911;SDS011;1971;51.778;10.330;2023-08-21T13:14:52;5.07;;;3.40;;
3911;SDS011;1971;51.778;10.330;2023-08-21T13:17:25;5.43;;;3.13;;
3911;SDS011;1971;51.778;10.330;2023-08-21T13:19:56;4.63;;;3.50;;
3911;SDS011;1971;51.778;10.330;2023-08-21T13:22:26;3.43;;;3.13;;
3911;SDS011;1971;51.778;10.330;2023-08-21T13:24:57;3.93;;;2.83;;
3911;SDS011;1971;51.778;10.330;2023-08-21T13:27:27;3.33;;;3.03;;
3911;SDS011;1971;51.778;10.330;2023-08-21T13:30:01;3.00;;;2.70;;
3911;SDS011;1971;51.778;10.330;2023-08-21T13:32:34;4.87;;;3.33;;
3911;SDS011;1971;51.778;10.330;2023-08-21T13:35:05;5.50;;;3.00;;
3911;SDS011;1971;51.778;10.330;2023-08-21T13:37:37;3.67;;;3.37;;
3911;SDS011;1971;51.778;10.330;2023-08-21T13:40:08;5.80;;;3.00;;
3911;SDS011;1971;51.778;10.330;2023-08-21T13:42:40;4.17;;;3.80;;
3911;SDS011;1971;51.778;10.330;2023-08-21T13:45:14;3.50;;;3.20;;
3911;SDS011;1971;51.778;10.330;2023-08-21T13:47:48;9.20;;;3.37;;
3911;SDS011;1971;51.778;10.330;2023-08-21T13:50:19;3.77;;;3.47;;
3911;SDS011;1971;51.778;10.330;2023-08-21T13:52:50;3.57;;;3.27;;
3911;SDS011;1971;51.778;10.330;2023-08-21T13:55:20;3.70;;;2.60;;
3911;SDS011;1971;51.778;10.330;2023-08-21T13:57:50;4.10;;;2.80;;
3911;SDS011;1971;51.778;10.330;2023-08-21T14:00:21;5.43;;;2.87;;
3911;SDS011;1971;51.778;10.330;2023-08-21T14:02:54;3.23;;;2.90;;
3911;SDS011;1971;51.778;10.330;2023-08-21T14:05:24;3.10;;;2.80;;
3911;SDS011;1971;51.778;10.330;2023-08-21T14:07:56;2.70;;;2.50;;
3911;SDS011;1971;51.778;10.330;2023-08-21T14:10:26;3.40;;;3.10;;
3911;SDS011;1971;51.778;10.330;2023-08-21T14:12:57;2.93;;;2.63;;
3911;SDS011;1971;51.778;10.330;2023-08-21T14:15:30;3.27;;;2.97;;
3911;SDS011;1971;51.778;10.330;2023-08-21T14:18:03;3.03;;;2.80;;
3911;SDS011;1971;51.778;10.330;2023-08-21T14:20:37;3.70;;;3.27;;
3911;SDS011;1971;51.778;10.330;2023-08-21T14:23:07;3.27;;;2.97;;
3911;SDS011;1971;51.778;10.330;2023-08-21T14:25:38;3.60;;;3.10;;
3911;SDS011;1971;51.778;10.330;2023-08-21T14:28:08;3.70;;;3.07;;
3911;SDS011;1971;51.778;10.330;2023-08-21T14:30:38;4.43;;;3.03;;
3911;SDS011;1971;51.778;10.330;2023-08-21T14:33:12;3.90;;;2.83;;
3911;SDS011;1971;51.778;10.330;2023-08-21T14:35:42;3.40;;;3.10;;
3911;SDS011;1971;51.778;10.330;2023-08-21T14:38:12;2.90;;;2.70;;
3911;SDS011;1971;51.778;10.330;2023-08-21T14:40:43;3.03;;;2.70;;
3911;SDS011;1971;51.778;10.330;2023-08-21T14:43:13;2.83;;;2.53;;
3911;SDS011;1971;51.778;10.330;2023-08-21T14:45:43;4.40;;;3.03;;
3911;SDS011;1971;51.778;10.330;2023-08-21T14:48:16;3.83;;;3.07;;
3911;SDS011;1971;51.778;10.330;2023-08-21T14:50:46;3.10;;;2.80;;
3911;SDS011;1971;51.778;10.330;2023-08-21T14:53:17;6.07;;;2.50;;
3911;SDS011;1971;51.778;10.330;2023-08-21T14:55:49;2.93;;;2.37;;
3911;SDS011;1971;51.778;10.330;2023-08-21T14:58:20;3.93;;;3.30;;
3911;SDS011;1971;51.778;10.330;2023-08-21T15:00:54;3.90;;;3.60;;
3911;SDS011;1971;51.778;10.330;2023-08-21T15:03:27;4.07;;;2.70;;
3911;SDS011;1971;51.778;10.330;2023-08-21T15:05:57;2.53;;;2.33;;
3911;SDS011;1971;51.778;10.330;2023-08-21T15:08:28;4.23;;;3.60;;
3911;SDS011;1971;51.778;10.330;2023-08-21T15:10:58;4.87;;;3.50;;
3911;SDS011;1971;51.778;10.330;2023-08-21T15:13:29;2.90;;;2.70;;
3911;SDS011;1971;51.778;10.330;2023-08-21T15:16:00;3.20;;;2.30;;
3911;SDS011;1971;51.778;10.330;2023-08-21T15:18:33;4.63;;;3.17;;
3911;SDS011;1971;51.778;10.330;2023-08-21T15:21:03;3.73;;;2.70;;
3911;SDS011;1971;51.778;10.330;2023-08-21T15:23:33;2.73;;;2.53;;
3911;SDS011;1971;51.778;10.330;2023-08-21T15:26:03;7.03;;;2.77;;
3911;SDS011;1971;51.778;10.330;2023-08-21T15:28:34;2.97;;;2.50;;
3911;SDS011;1971;51.778;10.330;2023-08-21T15:31:04;2.80;;;2.60;;
3911;SDS011;1971;51.778;10.330;2023-08-21T15:33:38;4.73;;;2.70;;
3911;SDS011;1971;51.778;10.330;2023-08-21T15:36:08;2.83;;;2.53;;
3911;SDS011;1971;51.778;10.330;2023-08-21T15:38:38;1.87;;;1.77;;
3911;SDS011;1971;51.778;10.330;2023-08-21T15:41:08;2.33;;;2.13;;
3911;SDS011;1971;51.778;10.330;2023-08-21T15:43:38;3.07;;;2.20;;
3911;SDS011;1971;51.778;10.330;2023-08-21T15:46:09;3.37;;;2.50;;
3911;SDS011;1971;51.778;10.330;2023-08-21T15:48:42;5.20;;;2.97;;
3911;SDS011;1971;51.778;10.330;2023-08-21T15:51:12;2.70;;;2.00;;
3911;SDS011;1971;51.778;10.330;2023-08-21T15:53:42;2.80;;;2.60;;
3911;SDS011;1971;51.778;10.330;2023-08-21T15:56:14;2.23;;;2.03;;
3911;SDS011;1971;51.778;10.330;2023-08-21T15:58:44;3.80;;;2.07;;
3911;SDS011;1971;51.778;10.330;2023-08-21T16:01:17;2.10;;;1.90;;
3911;SDS011;1971;51.778;10.330;2023-08-21T16:03:49;3.10;;;2.37;;
3911;SDS011;1971;51.778;10.330;2023-08-21T16:06:20;2.87;;;2.67;;
3911;SDS011;1971;51.778;10.330;2023-08-21T16:08:50;2.43;;;2.23;;
3911;SDS011;1971;51.778;10.330;2023-08-21T16:11:21;6.93;;;2.57;;
3911;SDS011;1971;51.778;10.330;2023-08-21T16:13:51;4.40;;;1.90;;
3911;SDS011;1971;51.778;10.330;2023-08-21T16:16:23;3.00;;;2.03;;
3911;SDS011;1971;51.778;10.330;2023-08-21T16:18:56;2.73;;;2.20;;
3911;SDS011;1971;51.778;10.330;2023-08-21T16:21:27;3.50;;;2.00;;
3911;SDS011;1971;51.778;10.330;2023-08-21T16:23:58;2.77;;;2.20;;
3911;SDS011;1971;51.778;10.330;2023-08-21T16:26:28;2.70;;;2.23;;
3911;SDS011;1971;51.778;10.330;2023-08-21T16:28:59;3.50;;;2.47;;
3911;SDS011;1971;51.778;10.330;2023-08-21T16:31:29;2.17;;;1.97;;
3911;SDS011;1971;51.778;10.330;2023-08-21T16:34:02;4.80;;;2.90;;
3911;SDS011;1971;51.778;10.330;2023-08-21T16:36:33;3.23;;;2.40;;